x

Apk - Aripeka, Fl (arpf1) Weather Station

6:54 - Tue 25th Sep 2018 All times are EDT. -4 hours from GMT.

  • Wind
    2mph, 3mph gusts
  • Ar Temp 78°f
  • Sea Pressure 1018.3mb
  • Apk - Aripeka, Fl
  • Apk - Aripeka, Fl

More Historic Weather Station data

Upgrade to MSW Pro to gain access to the past 30 days of data for over 8000 Wavebouys and Weather Stations around the globe.

Join

Comparision Forecast

View Surf forecast
   
Ter 09/25 6:54 2 3 mph 1018.3mb 78f
6:48 2 3 mph 1018.2mb 78f
5:54 2 5 mph 1017.9mb 78f
5:48 3 5 mph 1017.9mb 78f
4:54 2 5 mph 1017.5mb 78f
4:48 2 3 mph 1017.6mb 78f
3:54 2 3 mph 1017.5mb 79f
3:48 2 3 mph 1017.5mb 79f
2:54 3 6 mph 1017.6mb 79f
2:48 5 6 mph 1017.6mb 79f
1:54 5 8 mph 1018mb 80f
1:48 6 7 mph 1018mb 80f
12:54 3 5 mph 1018.5mb 80f
12:48 3 3 mph 1018.6mb 80f
Seg 09/24 11:54  -  0 mph 1018.9mb 80f
11:48  -  0 mph 1018.9mb 80f
10:54 2 3 mph 1018.3mb 80f
10:48 2 3 mph 1018.3mb 80f
9:54  -  1 mph 1017.6mb 80f
9:48  -  1 mph 1017.5mb 80f
5:54 3 8 mph 1015.6mb 89f
5:48 5 8 mph 1015.7mb 89f
4:54 6 9 mph 1015.1mb 89f
4:48 5 7 mph 1015.1mb 89f
3:54 7 10 mph 1015.1mb 89f
3:48 7 10 mph 1015.2mb 89f
2:54 3 7 mph 1016.1mb 92f
2:48 5 8 mph 1016.2mb 92f
1:54 7 10 mph 1017.1mb 91f
1:48 3 8 mph 1017.2mb 92f
12:54 6 9 mph 1017.5mb 90f
12:48 3 6 mph 1017.6mb 90f
11:54 5 7 mph 1017.7mb 87f
11:48 6 9 mph 1017.8mb 87f
10:54 7 11 mph 1017.9mb 85f
10:48 7 10 mph 1017.8mb 85f
9:54 8 11 mph 1018mb 82f
9:48 7 10 mph 1018mb 82f
7:54 5 6 mph 1017.1mb 76f
7:48 3 5 mph 1017.1mb 76f
6:54 3 6 mph 1016.6mb 76f
6:48 3 6 mph 1016.6mb 76f
5:54 2 5 mph 1016.1mb 76f
5:48 3 3 mph 1016mb 76f
4:54 2 3 mph 1015.6mb 77f
4:48 2 3 mph 1015.6mb 77f
3:54 2 3 mph 1015.6mb 77f
3:48 2 3 mph 1015.6mb 76f
2:54 2 5 mph 1015.7mb 77f
2:48 3 5 mph 1015.7mb 77f
1:54 2 5 mph 1016.1mb 78f
1:48 3 5 mph 1016.2mb 78f
12:54 3 6 mph 1016.6mb 79f
12:48 3 5 mph 1016.5mb 79f
Dom 09/23 11:54 3 5 mph 1016.7mb 79f
11:48 3 6 mph 1016.7mb 79f
10:54 1 2 mph 1016.5mb 80f
10:48 2 3 mph 1016.5mb 79f
9:54 3 5 mph 1016mb 79f
9:48 3 5 mph 1016mb 79f
8:54 1 3 mph 1015.5mb 78f
8:48 1 3 mph 1015.4mb 78f
7:54 6 8 mph 1014.9mb 79f
7:48 7 9 mph 1014.8mb 78f
6:54  -  2 mph 1014mb 83f
6:48  -  1 mph 1013.9mb 83f
5:54 2 3 mph 1013.7mb 83f
5:48 2 7 mph 1013.7mb 82f
4:54 3 10 mph 1013.9mb 85f
4:48 1 3 mph 1013.9mb 86f
3:54 2 5 mph 1014.1mb 87f
3:48 2 3 mph 1014.1mb 87f
2:54 7 10 mph 1014.7mb 86f
2:48 3 6 mph 1014.8mb 89f
1:54 5 8 mph 1015.4mb 90f
1:48 3 7 mph 1015.5mb 89f
12:54 5 9 mph 1016mb 89f
12:48 6 10 mph 1016.1mb 88f
11:54 5 7 mph 1016.8mb 86f
11:48 6 9 mph 1016.8mb 86f
10:54 5 8 mph 1016.8mb 85f
10:48 5 8 mph 1016.8mb 84f
9:54 6 10 mph 1016.8mb 84f
9:48 6 9 mph 1016.8mb 83f
8:54 6 9 mph 1016.1mb 80f
8:48 6 11 mph 1016mb 80f
7:54 3 6 mph 1015.7mb 76f
7:48 3 6 mph 1015.6mb 76f
6:54 5 7 mph 1015.2mb 76f
6:48 5 7 mph 1015.2mb 76f
5:54 5 7 mph 1014.6mb 76f
5:48 5 7 mph 1014.5mb 76f
4:54 5 6 mph 1014.8mb 76f
4:48 5 6 mph 1014.8mb 76f
3:54 3 6 mph 1015.3mb 77f
3:48 3 6 mph 1015.2mb 77f
2:54 3 5 mph 1015.5mb 77f
2:48 2 5 mph 1015.5mb 77f
1:54 3 3 mph 1015.9mb 77f
1:48 3 5 mph 1016.1mb 77f
12:54 2 3 mph 1016.8mb 78f
12:48 2 3 mph 1016.8mb 78f
Sáb 09/22 11:54 2 3 mph 1017.1mb 79f
11:48 2 3 mph 1017.1mb 79f
10:54 2 6 mph 1016.7mb 81f
10:48 2 5 mph 1016.7mb 81f
9:54 5 7 mph 1016.1mb 82f
9:48 5 7 mph 1016.1mb 82f
6:54 1 3 mph 1014.8mb 86f
6:48 1 3 mph 1014.6mb 86f
5:54 5 8 mph 1014.4mb 87f
5:48 5 8 mph 1014.5mb 86f
4:54 6 8 mph 1014.1mb 88f
4:48 5 11 mph 1014.1mb 88f
3:54 8 10 mph 1014.4mb 90f
3:48 7 11 mph 1014.5mb 90f
2:54 5 8 mph 1015.4mb 88f
2:48 8 10 mph 1015.4mb 88f
1:54 9 15 mph 1015.9mb 89f
1:48 7 10 mph 1016mb 88f
12:54 6 11 mph 1016.6mb 89f
12:48 7 13 mph 1016.7mb 88f
11:54 7 11 mph 1017.2mb 86f
11:48 6 10 mph 1017.3mb 86f